| Date | Time | Temp. (oF) | Dew Point (oF) | Rel. Hum. (%) | Press. (in.) | Wind Dir. | Wind Speed (mph) | Hourly Rainfall (in.) |
|
|---|---|---|---|---|---|---|---|---|---|
| 1 | 01/25 | 00:00 | 47 | 41 | 81 | 29.79 | WNW | 7 | 0.00 |
| 2 | 01/24 | 23:00 | 49 | 45 | 89 | 29.77 | WSW | 8 | 0.00 |
| 3 | 01/24 | 22:00 | 49 | 49 | 100 | 29.75 | W | 6 | 0.00 |
| 4 | 01/24 | 21:00 | 48 | 48 | 100 | 29.74 | NW | 6 | 0.00 |
| 5 | 01/24 | 20:00 | 48 | 48 | 100 | 29.72 | S | 0 | 0.00 |
| 6 | 01/24 | 19:00 | 48 | 48 | 100 | 29.70 | WNW | 0 | 0.00 |
| 7 | 01/24 | 18:00 | 48 | 48 | 100 | 29.67 | N | 6 | 0.00 |
| 8 | 01/24 | 17:00 | 49 | 49 | 100 | 29.66 | SSW | 0 | 0.00 |
| 9 | 01/24 | 16:00 | 48 | 48 | 100 | 29.65 | SSE | 2 | 0.00 |
| 10 | 01/24 | 15:00 | 48 | 48 | 100 | 29.65 | S | 2 | 0.00 |
| 11 | 01/24 | 14:00 | 47 | 46 | 100 | 29.64 | NNE | 1 | 0.00 |
| 12 | 01/24 | 13:00 | 46 | 45 | 100 | 29.65 | S | 7 | 0.00 |
| 13 | 01/24 | 12:00 | 44 | 44 | 100 | 29.68 | SSW | 5 | 0.04 |
| 14 | 01/24 | 11:00 | 43 | 42 | 100 | 29.79 | S | 5 | 0.62 |
| 15 | 01/24 | 10:00 | 42 | 41 | 100 | 29.80 | NW | 6 | 0.13 |
| 16 | 01/24 | 09:00 | 41 | 41 | 100 | 29.79 | NE | 3 | 0.05 |
| 17 | 01/24 | 08:00 | 40 | 40 | 100 | 29.82 | NE | 2 | 0.08 |
| 18 | 01/24 | 07:00 | 41 | 41 | 100 | 29.83 | NNE | 2 | 0.01 |
| 19 | 01/24 | 06:00 | 40 | 40 | 100 | 29.85 | ESE | 0 | 0.00 |
| 20 | 01/24 | 05:00 | 39 | 39 | 100 | 29.86 | NNE | 2 | 0.00 |
| 21 | 01/24 | 04:00 | 39 | 39 | 100 | 29.88 | ESE | 2 | 0.00 |
| 22 | 01/24 | 03:00 | 40 | 40 | 100 | 29.93 | E | 0 | 0.00 |
| 23 | 01/24 | 02:00 | 39 | 39 | 100 | 29.94 | NE | 0 | 0.00 |
| 24 | 01/24 | 01:00 | 39 | 39 | 100 | 29.93 | NE | 0 | 0.00 |